Date,TemperatureHighF,TemperatureAvgF,TemperatureLowF,DewpointHighF,DewpointAvgF,DewpointLowF,HumidityHigh,HumidityAvg,HumidityLow,PressureMaxIn,PressureMinIn,WindSpeedMaxMPH,WindSpeedAvgMPH,GustSpeedMaxMPH,PrecipitationSumIn
2013-3-4,42.5,32.8,21.9,27.2,22.6,18.2,86,67,49,30.23,30.04,5,1,11,0.00
2013-3-5,40.3,36.8,30.1,37.8,31.9,25.9,97,83,61,30.05,29.61,6,3,14,0.26
2013-3-6,32.5,30.4,28.7,30.4,28.8,27.2,97,94,91,30.31,29.71,6,3,23,0.01
2013-3-7,36.6,33.0,30.5,32.2,30.3,28.5,96,90,82,30.43,30.30,2,1,7,0.08
2013-3-8,45.2,35.1,26.5,28.1,26.4,23.6,89,72,48,30.52,30.41,4,1,10,0.01
2013-3-9,58.2,43.0,28.3,36.2,31.4,26.3,92,67,40,30.43,30.08,6,2,13,0.00
2013-3-10,68.0,59.1,52.3,45.6,36.6,34.4,60,44,30,30.07,29.85,6,3,21,0.02
2013-3-11,57.9,48.4,38.3,52.6,45.0,33.6,97,88,58,29.90,29.65,7,3,25,1.29
2013-3-12,45.2,38.5,34.2,33.4,30.0,26.9,89,72,53,30.11,29.90,6,4,15,0.01
2013-3-13,34.6,30.6,26.9,32.2,24.4,18.7,93,78,61,30.38,30.07,6,4,20,0.02
2013-3-14,44.3,33.3,22.9,27.6,20.6,16.6,88,63,33,30.43,30.25,4,2,10,0.00
2013-3-15,53.6,41.8,30.6,40.3,34.2,28.4,92,75,58,30.24,29.83,4,1,10,0.00
2013-3-16,63.9,50.0,39.1,52.2,43.7,34.7,93,80,63,30.04,29.67,8,4,21,0.12
2013-3-17,38.9,35.2,32.7,34.5,32.1,29.2,95,89,82,30.18,30.02,7,3,14,0.30
2013-3-18,49.3,41.3,34.3,47.6,39.6,33.0,98,94,77,30.04,29.69,6,4,18,0.92
2013-3-19,45.0,37.8,29.2,35.2,23.6,14.1,90,60,30,30.22,29.90,9,5,24,0.00
2013-3-20,37.8,32.8,24.9,22.0,18.4,12.9,72,56,43,30.22,30.05,7,4,18,0.00
2013-3-21,32.7,26.1,20.7,18.2,13.4,10.3,81,59,43,30.12,29.00,6,2,14,0.00
2013-3-22,34.2,26.3,23.5,18.8,15.4,14.2,70,64,50,30.12,29.78,3,1,9,0.00
2013-3-23,51.8,41.5,32.6,25.9,23.0,19.2,62,49,33,30.09,29.90,4,2,11,0.00
2013-3-24,42.0,35.8,32.8,33.7,29.7,24.0,97,80,49,29.89,29.42,7,4,19,0.31
2013-3-25,34.6,32.7,29.9,33.6,31.1,28.2,97,94,91,29.98,29.45,5,3,14,0.21
2013-3-26,33.6,32.5,32.0,31.2,30.6,30.3,94,92,90,30.14,29.99,3,2,10,0.01